sensor_id;sensor_type;location;lat;lon;timestamp;P1;durP1;ratioP1;P2;durP2;ratioP2
6015;SDS011;3036;49.960;8.454;2023-10-31T00:02:15;0.20;;;0.20;;
6015;SDS011;3036;49.960;8.454;2023-10-31T00:04:42;0.30;;;0.30;;
6015;SDS011;3036;49.960;8.454;2023-10-31T00:07:09;0.22;;;0.22;;
6015;SDS011;3036;49.960;8.454;2023-10-31T00:09:37;0.83;;;0.30;;
6015;SDS011;3036;49.960;8.454;2023-10-31T00:12:05;3.40;;;0.50;;
6015;SDS011;3036;49.960;8.454;2023-10-31T00:14:32;0.40;;;0.40;;
6015;SDS011;3036;49.960;8.454;2023-10-31T00:16:59;2.05;;;0.28;;
6015;SDS011;3036;49.960;8.454;2023-10-31T00:19:26;1.75;;;0.20;;
6015;SDS011;3036;49.960;8.454;2023-10-31T00:21:54;1.65;;;0.40;;
6015;SDS011;3036;49.960;8.454;2023-10-31T00:24:21;0.20;;;0.20;;
6015;SDS011;3036;49.960;8.454;2023-10-31T00:26:49;1.20;;;0.20;;
6015;SDS011;3036;49.960;8.454;2023-10-31T00:29:16;1.17;;;0.20;;
6015;SDS011;3036;49.960;8.454;2023-10-31T00:31:43;1.35;;;0.20;;
6015;SDS011;3036;49.960;8.454;2023-10-31T00:34:10;0.20;;;0.20;;
6015;SDS011;3036;49.960;8.454;2023-10-31T00:36:37;0.20;;;0.20;;
6015;SDS011;3036;49.960;8.454;2023-10-31T00:39:04;0.90;;;0.20;;
6015;SDS011;3036;49.960;8.454;2023-10-31T00:41:31;0.30;;;0.30;;
6015;SDS011;3036;49.960;8.454;2023-10-31T00:44:00;1.90;;;0.20;;
6015;SDS011;3036;49.960;8.454;2023-10-31T00:46:27;7.68;;;0.30;;
6015;SDS011;3036;49.960;8.454;2023-10-31T00:48:54;3.17;;;0.27;;
6015;SDS011;3036;49.960;8.454;2023-10-31T00:51:21;0.43;;;0.10;;
6015;SDS011;3036;49.960;8.454;2023-10-31T00:53:48;0.47;;;0.20;;
6015;SDS011;3036;49.960;8.454;2023-10-31T00:56:15;0.20;;;0.20;;
6015;SDS011;3036;49.960;8.454;2023-10-31T00:58:42;0.10;;;0.10;;
6015;SDS011;3036;49.960;8.454;2023-10-31T01:01:10;0.53;;;0.30;;
6015;SDS011;3036;49.960;8.454;2023-10-31T01:03:37;0.20;;;0.20;;
6015;SDS011;3036;49.960;8.454;2023-10-31T01:06:04;0.43;;;0.30;;
6015;SDS011;3036;49.960;8.454;2023-10-31T01:08:32;1.90;;;0.30;;
6015;SDS011;3036;49.960;8.454;2023-10-31T01:10:59;0.20;;;0.20;;
6015;SDS011;3036;49.960;8.454;2023-10-31T01:13:26;2.57;;;0.30;;
6015;SDS011;3036;49.960;8.454;2023-10-31T01:15:53;0.43;;;0.20;;
6015;SDS011;3036;49.960;8.454;2023-10-31T01:18:21;0.20;;;0.20;;
6015;SDS011;3036;49.960;8.454;2023-10-31T01:20:48;0.40;;;0.30;;
6015;SDS011;3036;49.960;8.454;2023-10-31T01:23:15;2.57;;;0.20;;
6015;SDS011;3036;49.960;8.454;2023-10-31T01:25:42;1.40;;;0.27;;
6015;SDS011;3036;49.960;8.454;2023-10-31T01:28:09;1.30;;;0.20;;
6015;SDS011;3036;49.960;8.454;2023-10-31T01:30:36;0.20;;;0.20;;
6015;SDS011;3036;49.960;8.454;2023-10-31T01:33:03;0.30;;;0.30;;
6015;SDS011;3036;49.960;8.454;2023-10-31T01:35:32;0.20;;;0.20;;
6015;SDS011;3036;49.960;8.454;2023-10-31T01:37:59;0.20;;;0.20;;
6015;SDS011;3036;49.960;8.454;2023-10-31T01:40:26;0.63;;;0.20;;
6015;SDS011;3036;49.960;8.454;2023-10-31T01:42:53;0.40;;;0.20;;
6015;SDS011;3036;49.960;8.454;2023-10-31T01:45:19;4.37;;;0.20;;
6015;SDS011;3036;49.960;8.454;2023-10-31T01:47:46;0.27;;;0.27;;
6015;SDS011;3036;49.960;8.454;2023-10-31T01:50:15;1.20;;;0.30;;
6015;SDS011;3036;49.960;8.454;2023-10-31T01:52:44;4.03;;;0.20;;
6015;SDS011;3036;49.960;8.454;2023-10-31T01:55:11;0.20;;;0.20;;
6015;SDS011;3036;49.960;8.454;2023-10-31T01:57:38;0.40;;;0.20;;
6015;SDS011;3036;49.960;8.454;2023-10-31T02:00:06;0.93;;;0.20;;
6015;SDS011;3036;49.960;8.454;2023-10-31T02:02:33;0.10;;;0.10;;
6015;SDS011;3036;49.960;8.454;2023-10-31T02:05:01;0.20;;;0.20;;
6015;SDS011;3036;49.960;8.454;2023-10-31T02:07:28;0.20;;;0.20;;
6015;SDS011;3036;49.960;8.454;2023-10-31T02:09:56;0.10;;;0.10;;
6015;SDS011;3036;49.960;8.454;2023-10-31T02:12:33;0.20;;;0.20;;
6015;SDS011;3036;49.960;8.454;2023-10-31T02:15:00;0.30;;;0.30;;
6015;SDS011;3036;49.960;8.454;2023-10-31T02:17:27;0.27;;;0.27;;
6015;SDS011;3036;49.960;8.454;2023-10-31T02:19:54;0.27;;;0.27;;
6015;SDS011;3036;49.960;8.454;2023-10-31T02:22:22;1.50;;;0.20;;
6015;SDS011;3036;49.960;8.454;2023-10-31T02:24:50;0.20;;;0.20;;
6015;SDS011;3036;49.960;8.454;2023-10-31T02:27:17;0.10;;;0.10;;
6015;SDS011;3036;49.960;8.454;2023-10-31T02:29:44;2.17;;;0.23;;
6015;SDS011;3036;49.960;8.454;2023-10-31T02:32:11;0.20;;;0.20;;
6015;SDS011;3036;49.960;8.454;2023-10-31T02:34:38;0.20;;;0.20;;
6015;SDS011;3036;49.960;8.454;2023-10-31T02:37:05;0.77;;;0.30;;
6015;SDS011;3036;49.960;8.454;2023-10-31T02:39:33;0.30;;;0.20;;
6015;SDS011;3036;49.960;8.454;2023-10-31T02:42:00;0.83;;;0.30;;
6015;SDS011;3036;49.960;8.454;2023-10-31T02:44:27;1.40;;;0.30;;
6015;SDS011;3036;49.960;8.454;2023-10-31T02:46:54;0.20;;;0.20;;
6015;SDS011;3036;49.960;8.454;2023-10-31T02:49:22;2.40;;;0.30;;
6015;SDS011;3036;49.960;8.454;2023-10-31T02:51:49;0.30;;;0.30;;
6015;SDS011;3036;49.960;8.454;2023-10-31T02:54:16;0.53;;;0.40;;
6015;SDS011;3036;49.960;8.454;2023-10-31T02:56:44;0.30;;;0.30;;
6015;SDS011;3036;49.960;8.454;2023-10-31T02:59:11;0.30;;;0.30;;
6015;SDS011;3036;49.960;8.454;2023-10-31T03:01:38;0.73;;;0.30;;
6015;SDS011;3036;49.960;8.454;2023-10-31T03:04:05;0.20;;;0.20;;
6015;SDS011;3036;49.960;8.454;2023-10-31T03:06:37;0.23;;;0.23;;
6015;SDS011;3036;49.960;8.454;2023-10-31T03:09:04;0.30;;;0.30;;
6015;SDS011;3036;49.960;8.454;2023-10-31T03:11:31;0.20;;;0.20;;
6015;SDS011;3036;49.960;8.454;2023-10-31T03:13:59;1.40;;;0.37;;
6015;SDS011;3036;49.960;8.454;2023-10-31T03:16:26;0.33;;;0.30;;
6015;SDS011;3036;49.960;8.454;2023-10-31T03:18:53;1.30;;;0.40;;
6015;SDS011;3036;49.960;8.454;2023-10-31T03:21:20;0.20;;;0.20;;
6015;SDS011;3036;49.960;8.454;2023-10-31T03:23:48;0.60;;;0.60;;
6015;SDS011;3036;49.960;8.454;2023-10-31T03:26:15;0.20;;;0.20;;
6015;SDS011;3036;49.960;8.454;2023-10-31T03:28:42;0.30;;;0.30;;
6015;SDS011;3036;49.960;8.454;2023-10-31T03:31:11;1.03;;;0.27;;
6015;SDS011;3036;49.960;8.454;2023-10-31T03:33:38;0.77;;;0.40;;
6015;SDS011;3036;49.960;8.454;2023-10-31T03:36:05;2.43;;;0.20;;
6015;SDS011;3036;49.960;8.454;2023-10-31T03:38:33;0.77;;;0.30;;
6015;SDS011;3036;49.960;8.454;2023-10-31T03:41:00;0.70;;;0.37;;
6015;SDS011;3036;49.960;8.454;2023-10-31T03:43:27;0.33;;;0.33;;
6015;SDS011;3036;49.960;8.454;2023-10-31T03:45:54;0.30;;;0.30;;
6015;SDS011;3036;49.960;8.454;2023-10-31T03:48:23;0.83;;;0.47;;
6015;SDS011;3036;49.960;8.454;2023-10-31T03:50:50;0.40;;;0.40;;
6015;SDS011;3036;49.960;8.454;2023-10-31T03:53:17;0.53;;;0.30;;
6015;SDS011;3036;49.960;8.454;2023-10-31T03:55:44;1.13;;;0.30;;
6015;SDS011;3036;49.960;8.454;2023-10-31T03:58:11;1.63;;;0.40;;
6015;SDS011;3036;49.960;8.454;2023-10-31T04:00:44;0.30;;;0.30;;
6015;SDS011;3036;49.960;8.454;2023-10-31T04:03:14;0.37;;;0.30;;
6015;SDS011;3036;49.960;8.454;2023-10-31T04:05:43;0.33;;;0.33;;
6015;SDS011;3036;49.960;8.454;2023-10-31T04:08:10;0.30;;;0.30;;
6015;SDS011;3036;49.960;8.454;2023-10-31T04:10:37;0.63;;;0.30;;
6015;SDS011;3036;49.960;8.454;2023-10-31T04:13:04;0.30;;;0.30;;
6015;SDS011;3036;49.960;8.454;2023-10-31T04:15:31;0.30;;;0.30;;
6015;SDS011;3036;49.960;8.454;2023-10-31T04:17:59;1.40;;;0.30;;
6015;SDS011;3036;49.960;8.454;2023-10-31T04:20:26;0.30;;;0.30;;
6015;SDS011;3036;49.960;8.454;2023-10-31T04:22:55;0.30;;;0.30;;
6015;SDS011;3036;49.960;8.454;2023-10-31T04:25:22;0.50;;;0.50;;
6015;SDS011;3036;49.960;8.454;2023-10-31T04:27:49;0.30;;;0.30;;
6015;SDS011;3036;49.960;8.454;2023-10-31T04:30:16;0.30;;;0.30;;
6015;SDS011;3036;49.960;8.454;2023-10-31T04:32:43;0.40;;;0.40;;
6015;SDS011;3036;49.960;8.454;2023-10-31T04:35:10;1.47;;;0.50;;
6015;SDS011;3036;49.960;8.454;2023-10-31T04:37:37;0.37;;;0.37;;
6015;SDS011;3036;49.960;8.454;2023-10-31T04:40:06;0.40;;;0.40;;
6015;SDS011;3036;49.960;8.454;2023-10-31T04:42:33;0.70;;;0.60;;
6015;SDS011;3036;49.960;8.454;2023-10-31T04:45:00;3.40;;;0.40;;
6015;SDS011;3036;49.960;8.454;2023-10-31T04:47:27;0.70;;;0.47;;
6015;SDS011;3036;49.960;8.454;2023-10-31T04:49:55;0.30;;;0.30;;
6015;SDS011;3036;49.960;8.454;2023-10-31T04:52:22;0.63;;;0.47;;
6015;SDS011;3036;49.960;8.454;2023-10-31T04:54:51;0.50;;;0.50;;
6015;SDS011;3036;49.960;8.454;2023-10-31T04:57:19;0.50;;;0.50;;
6015;SDS011;3036;49.960;8.454;2023-10-31T04:59:46;2.00;;;0.73;;
6015;SDS011;3036;49.960;8.454;2023-10-31T05:02:13;0.50;;;0.50;;
6015;SDS011;3036;49.960;8.454;2023-10-31T05:04:40;0.40;;;0.40;;
6015;SDS011;3036;49.960;8.454;2023-10-31T05:07:07;0.40;;;0.40;;
6015;SDS011;3036;49.960;8.454;2023-10-31T05:09:35;3.33;;;0.60;;
6015;SDS011;3036;49.960;8.454;2023-10-31T05:12:03;0.50;;;0.50;;
6015;SDS011;3036;49.960;8.454;2023-10-31T05:14:31;0.60;;;0.60;;
6015;SDS011;3036;49.960;8.454;2023-10-31T05:16:58;1.17;;;0.70;;
6015;SDS011;3036;49.960;8.454;2023-10-31T05:19:25;0.70;;;0.70;;
6015;SDS011;3036;49.960;8.454;2023-10-31T05:21:52;2.53;;;0.60;;
6015;SDS011;3036;49.960;8.454;2023-10-31T05:24:19;0.60;;;0.60;;
6015;SDS011;3036;49.960;8.454;2023-10-31T05:26:46;1.10;;;0.80;;
6015;SDS011;3036;49.960;8.454;2023-10-31T05:29:13;1.70;;;0.80;;
6015;SDS011;3036;49.960;8.454;2023-10-31T05:31:42;3.47;;;0.77;;
6015;SDS011;3036;49.960;8.454;2023-10-31T05:34:09;0.70;;;0.70;;
6015;SDS011;3036;49.960;8.454;2023-10-31T05:36:36;0.70;;;0.70;;
6015;SDS011;3036;49.960;8.454;2023-10-31T05:39:03;1.80;;;0.50;;
6015;SDS011;3036;49.960;8.454;2023-10-31T05:41:33;1.53;;;0.77;;
6015;SDS011;3036;49.960;8.454;2023-10-31T05:44:00;1.10;;;1.10;;
6015;SDS011;3036;49.960;8.454;2023-10-31T05:46:27;1.10;;;1.10;;
6015;SDS011;3036;49.960;8.454;2023-10-31T05:48:55;0.50;;;0.50;;
6015;SDS011;3036;49.960;8.454;2023-10-31T05:51:22;3.03;;;0.50;;
6015;SDS011;3036;49.960;8.454;2023-10-31T05:53:51;0.83;;;0.40;;
6015;SDS011;3036;49.960;8.454;2023-10-31T05:56:18;0.40;;;0.40;;
6015;SDS011;3036;49.960;8.454;2023-10-31T05:58:45;0.40;;;0.40;;
6015;SDS011;3036;49.960;8.454;2023-10-31T06:01:12;1.20;;;0.40;;
6015;SDS011;3036;49.960;8.454;2023-10-31T06:03:40;0.30;;;0.30;;
6015;SDS011;3036;49.960;8.454;2023-10-31T06:06:10;0.90;;;0.70;;
6015;SDS011;3036;49.960;8.454;2023-10-31T06:08:37;0.73;;;0.60;;
6015;SDS011;3036;49.960;8.454;2023-10-31T06:11:04;0.30;;;0.30;;
6015;SDS011;3036;49.960;8.454;2023-10-31T06:13:31;1.60;;;0.30;;
6015;SDS011;3036;49.960;8.454;2023-10-31T06:16:00;1.87;;;0.37;;
6015;SDS011;3036;49.960;8.454;2023-10-31T06:18:27;0.57;;;0.57;;
6015;SDS011;3036;49.960;8.454;2023-10-31T06:20:54;0.77;;;0.77;;
6015;SDS011;3036;49.960;8.454;2023-10-31T06:23:23;0.60;;;0.60;;
6015;SDS011;3036;49.960;8.454;2023-10-31T06:25:50;2.10;;;0.70;;
6015;SDS011;3036;49.960;8.454;2023-10-31T06:28:17;2.73;;;0.40;;
6015;SDS011;3036;49.960;8.454;2023-10-31T06:30:44;0.60;;;0.60;;
6015;SDS011;3036;49.960;8.454;2023-10-31T06:33:11;2.00;;;1.53;;
6015;SDS011;3036;49.960;8.454;2023-10-31T06:35:38;1.40;;;0.50;;
6015;SDS011;3036;49.960;8.454;2023-10-31T06:38:05;0.60;;;0.50;;
6015;SDS011;3036;49.960;8.454;2023-10-31T06:40:34;3.87;;;0.50;;
6015;SDS011;3036;49.960;8.454;2023-10-31T06:43:01;0.83;;;0.30;;
6015;SDS011;3036;49.960;8.454;2023-10-31T06:45:28;1.60;;;0.27;;
6015;SDS011;3036;49.960;8.454;2023-10-31T06:47:55;0.30;;;0.30;;
6015;SDS011;3036;49.960;8.454;2023-10-31T06:50:22;0.30;;;0.30;;
6015;SDS011;3036;49.960;8.454;2023-10-31T06:52:49;0.33;;;0.33;;
6015;SDS011;3036;49.960;8.454;2023-10-31T06:55:16;0.40;;;0.40;;
6015;SDS011;3036;49.960;8.454;2023-10-31T06:57:44;1.13;;;0.30;;
6015;SDS011;3036;49.960;8.454;2023-10-31T07:00:12;2.53;;;0.20;;
6015;SDS011;3036;49.960;8.454;2023-10-31T07:02:39;0.30;;;0.30;;
6015;SDS011;3036;49.960;8.454;2023-10-31T07:05:06;0.40;;;0.40;;
6015;SDS011;3036;49.960;8.454;2023-10-31T07:07:33;0.30;;;0.30;;
6015;SDS011;3036;49.960;8.454;2023-10-31T07:10:00;0.57;;;0.50;;
6015;SDS011;3036;49.960;8.454;2023-10-31T07:12:28;0.20;;;0.20;;
6015;SDS011;3036;49.960;8.454;2023-10-31T07:14:56;0.77;;;0.40;;
6015;SDS011;3036;49.960;8.454;2023-10-31T07:17:24;0.30;;;0.30;;
6015;SDS011;3036;49.960;8.454;2023-10-31T07:19:52;0.30;;;0.30;;
6015;SDS011;3036;49.960;8.454;2023-10-31T07:22:19;0.33;;;0.33;;
6015;SDS011;3036;49.960;8.454;2023-10-31T07:24:47;2.60;;;0.40;;
6015;SDS011;3036;49.960;8.454;2023-10-31T07:27:14;0.20;;;0.20;;
6015;SDS011;3036;49.960;8.454;2023-10-31T07:29:41;0.30;;;0.30;;
6015;SDS011;3036;49.960;8.454;2023-10-31T07:32:09;4.63;;;0.27;;
6015;SDS011;3036;49.960;8.454;2023-10-31T07:34:39;0.67;;;0.30;;
6015;SDS011;3036;49.960;8.454;2023-10-31T07:37:07;1.73;;;0.30;;
6015;SDS011;3036;49.960;8.454;2023-10-31T07:39:34;1.30;;;0.53;;
6015;SDS011;3036;49.960;8.454;2023-10-31T07:42:01;0.67;;;0.30;;
6015;SDS011;3036;49.960;8.454;2023-10-31T07:44:28;0.40;;;0.20;;
6015;SDS011;3036;49.960;8.454;2023-10-31T07:46:55;0.50;;;0.30;;
6015;SDS011;3036;49.960;8.454;2023-10-31T07:49:23;2.57;;;0.30;;
6015;SDS011;3036;49.960;8.454;2023-10-31T07:51:50;0.60;;;0.60;;
6015;SDS011;3036;49.960;8.454;2023-10-31T07:54:17;1.70;;;0.40;;
6015;SDS011;3036;49.960;8.454;2023-10-31T07:56:46;1.70;;;0.30;;
6015;SDS011;3036;49.960;8.454;2023-10-31T07:59:13;0.30;;;0.30;;
6015;SDS011;3036;49.960;8.454;2023-10-31T08:01:40;1.50;;;0.50;;
6015;SDS011;3036;49.960;8.454;2023-10-31T08:04:07;2.67;;;0.20;;
6015;SDS011;3036;49.960;8.454;2023-10-31T08:06:36;0.30;;;0.30;;
6015;SDS011;3036;49.960;8.454;2023-10-31T08:09:03;0.30;;;0.30;;
6015;SDS011;3036;49.960;8.454;2023-10-31T08:11:30;1.70;;;0.30;;
6015;SDS011;3036;49.960;8.454;2023-10-31T08:13:59;0.50;;;0.30;;
6015;SDS011;3036;49.960;8.454;2023-10-31T08:16:26;0.77;;;0.30;;
6015;SDS011;3036;49.960;8.454;2023-10-31T08:18:54;1.67;;;0.40;;
6015;SDS011;3036;49.960;8.454;2023-10-31T08:21:21;0.67;;;0.40;;
6015;SDS011;3036;49.960;8.454;2023-10-31T08:23:49;3.43;;;0.30;;
6015;SDS011;3036;49.960;8.454;2023-10-31T08:26:16;4.90;;;0.40;;
6015;SDS011;3036;49.960;8.454;2023-10-31T08:28:43;0.40;;;0.40;;
6015;SDS011;3036;49.960;8.454;2023-10-31T08:31:10;0.30;;;0.30;;
6015;SDS011;3036;49.960;8.454;2023-10-31T08:33:38;0.30;;;0.30;;
6015;SDS011;3036;49.960;8.454;2023-10-31T08:36:05;0.50;;;0.50;;
6015;SDS011;3036;49.960;8.454;2023-10-31T08:38:32;0.63;;;0.40;;
6015;SDS011;3036;49.960;8.454;2023-10-31T08:41:01;1.27;;;0.40;;
6015;SDS011;3036;49.960;8.454;2023-10-31T08:43:28;1.47;;;0.37;;
6015;SDS011;3036;49.960;8.454;2023-10-31T08:45:55;0.20;;;0.20;;
6015;SDS011;3036;49.960;8.454;2023-10-31T08:48:22;0.60;;;0.40;;
6015;SDS011;3036;49.960;8.454;2023-10-31T08:50:49;2.10;;;0.50;;
6015;SDS011;3036;49.960;8.454;2023-10-31T08:53:17;0.20;;;0.20;;
6015;SDS011;3036;49.960;8.454;2023-10-31T08:55:45;0.30;;;0.30;;
6015;SDS011;3036;49.960;8.454;2023-10-31T08:58:13;2.30;;;0.50;;
6015;SDS011;3036;49.960;8.454;2023-10-31T09:00:43;1.20;;;0.40;;
6015;SDS011;3036;49.960;8.454;2023-10-31T09:03:10;0.23;;;0.23;;
6015;SDS011;3036;49.960;8.454;2023-10-31T09:05:37;0.40;;;0.40;;
6015;SDS011;3036;49.960;8.454;2023-10-31T09:08:04;0.80;;;0.27;;
6015;SDS011;3036;49.960;8.454;2023-10-31T09:10:31;2.17;;;0.37;;
6015;SDS011;3036;49.960;8.454;2023-10-31T09:12:59;0.27;;;0.27;;
6015;SDS011;3036;49.960;8.454;2023-10-31T09:15:27;0.93;;;0.27;;
6015;SDS011;3036;49.960;8.454;2023-10-31T09:17:54;6.70;;;0.60;;
6015;SDS011;3036;49.960;8.454;2023-10-31T09:20:21;0.93;;;0.40;;
6015;SDS011;3036;49.960;8.454;2023-10-31T09:22:48;1.25;;;0.28;;
6015;SDS011;3036;49.960;8.454;2023-10-31T09:25:15;0.45;;;0.30;;
6015;SDS011;3036;49.960;8.454;2023-10-31T09:27:42;0.35;;;0.35;;
6015;SDS011;3036;49.960;8.454;2023-10-31T09:30:09;0.40;;;0.40;;
6015;SDS011;3036;49.960;8.454;2023-10-31T09:32:38;0.40;;;0.40;;
6015;SDS011;3036;49.960;8.454;2023-10-31T09:35:05;0.30;;;0.30;;
6015;SDS011;3036;49.960;8.454;2023-10-31T09:37:33;2.58;;;0.50;;
6015;SDS011;3036;49.960;8.454;2023-10-31T09:40:00;0.90;;;0.63;;
6015;SDS011;3036;49.960;8.454;2023-10-31T09:42:27;0.40;;;0.40;;
6015;SDS011;3036;49.960;8.454;2023-10-31T09:44:54;0.57;;;0.40;;
6015;SDS011;3036;49.960;8.454;2023-10-31T09:47:22;0.32;;;0.32;;
6015;SDS011;3036;49.960;8.454;2023-10-31T09:49:50;0.80;;;0.38;;
6015;SDS011;3036;49.960;8.454;2023-10-31T09:52:17;0.77;;;0.30;;
6015;SDS011;3036;49.960;8.454;2023-10-31T09:54:45;0.35;;;0.35;;
6015;SDS011;3036;49.960;8.454;2023-10-31T09:57:14;1.70;;;0.30;;
6015;SDS011;3036;49.960;8.454;2023-10-31T09:59:42;0.30;;;0.30;;
6015;SDS011;3036;49.960;8.454;2023-10-31T10:02:09;0.25;;;0.25;;
6015;SDS011;3036;49.960;8.454;2023-10-31T10:04:36;0.30;;;0.30;;
6015;SDS011;3036;49.960;8.454;2023-10-31T10:07:05;1.45;;;0.30;;
6015;SDS011;3036;49.960;8.454;2023-10-31T10:09:32;0.65;;;0.30;;
6015;SDS011;3036;49.960;8.454;2023-10-31T10:11:59;1.33;;;0.40;;
6015;SDS011;3036;49.960;8.454;2023-10-31T10:14:26;0.57;;;0.30;;
6015;SDS011;3036;49.960;8.454;2023-10-31T10:16:56;0.97;;;0.30;;
6015;SDS011;3036;49.960;8.454;2023-10-31T10:19:23;1.33;;;0.50;;
6015;SDS011;3036;49.960;8.454;2023-10-31T10:21:51;6.32;;;0.40;;
6015;SDS011;3036;49.960;8.454;2023-10-31T10:24:20;0.30;;;0.30;;
6015;SDS011;3036;49.960;8.454;2023-10-31T10:26:47;1.13;;;0.30;;
6015;SDS011;3036;49.960;8.454;2023-10-31T10:29:14;0.52;;;0.43;;
6015;SDS011;3036;49.960;8.454;2023-10-31T10:31:41;0.30;;;0.30;;
6015;SDS011;3036;49.960;8.454;2023-10-31T10:34:09;0.40;;;0.40;;
6015;SDS011;3036;49.960;8.454;2023-10-31T10:36:37;2.08;;;0.32;;
6015;SDS011;3036;49.960;8.454;2023-10-31T10:39:05;2.15;;;0.65;;
6015;SDS011;3036;49.960;8.454;2023-10-31T10:41:35;0.40;;;0.40;;
6015;SDS011;3036;49.960;8.454;2023-10-31T10:44:04;1.33;;;0.60;;
6015;SDS011;3036;49.960;8.454;2023-10-31T10:46:33;0.30;;;0.30;;
6015;SDS011;3036;49.960;8.454;2023-10-31T10:48:59;0.88;;;0.30;;
6015;SDS011;3036;49.960;8.454;2023-10-31T10:51:33;0.40;;;0.40;;
6015;SDS011;3036;49.960;8.454;2023-10-31T10:54:03;1.17;;;0.50;;
6015;SDS011;3036;49.960;8.454;2023-10-31T10:56:33;1.65;;;0.47;;
6015;SDS011;3036;49.960;8.454;2023-10-31T10:59:06;0.30;;;0.30;;
6015;SDS011;3036;49.960;8.454;2023-10-31T11:01:34;0.40;;;0.40;;
6015;SDS011;3036;49.960;8.454;2023-10-31T11:04:01;1.85;;;0.47;;
6015;SDS011;3036;49.960;8.454;2023-10-31T11:06:29;2.05;;;0.40;;
6015;SDS011;3036;49.960;8.454;2023-10-31T11:08:56;0.32;;;0.32;;
6015;SDS011;3036;49.960;8.454;2023-10-31T11:11:24;1.55;;;0.40;;
6015;SDS011;3036;49.960;8.454;2023-10-31T11:13:51;0.50;;;0.43;;
6015;SDS011;3036;49.960;8.454;2023-10-31T11:16:21;2.10;;;0.40;;
6015;SDS011;3036;49.960;8.454;2023-10-31T11:18:50;1.65;;;0.30;;
6015;SDS011;3036;49.960;8.454;2023-10-31T11:21:17;2.22;;;0.30;;
6015;SDS011;3036;49.960;8.454;2023-10-31T11:23:45;2.55;;;0.55;;
6015;SDS011;3036;49.960;8.454;2023-10-31T11:26:12;2.03;;;0.38;;
6015;SDS011;3036;49.960;8.454;2023-10-31T11:28:39;0.50;;;0.50;;
6015;SDS011;3036;49.960;8.454;2023-10-31T11:31:07;0.40;;;0.40;;
6015;SDS011;3036;49.960;8.454;2023-10-31T11:33:35;2.88;;;0.40;;
6015;SDS011;3036;49.960;8.454;2023-10-31T11:36:07;2.72;;;0.60;;
6015;SDS011;3036;49.960;8.454;2023-10-31T11:38:35;0.60;;;0.50;;
6015;SDS011;3036;49.960;8.454;2023-10-31T11:41:02;3.13;;;0.68;;
6015;SDS011;3036;49.960;8.454;2023-10-31T11:46:17;1.48;;;0.60;;
6015;SDS011;3036;49.960;8.454;2023-10-31T11:48:47;2.55;;;0.50;;
6015;SDS011;3036;49.960;8.454;2023-10-31T11:51:15;0.50;;;0.40;;
6015;SDS011;3036;49.960;8.454;2023-10-31T11:53:42;0.65;;;0.40;;
6015;SDS011;3036;49.960;8.454;2023-10-31T11:56:10;0.50;;;0.50;;
6015;SDS011;3036;49.960;8.454;2023-10-31T11:58:37;1.88;;;0.60;;
6015;SDS011;3036;49.960;8.454;2023-10-31T12:01:05;1.75;;;0.50;;
6015;SDS011;3036;49.960;8.454;2023-10-31T12:03:36;1.27;;;0.30;;
6015;SDS011;3036;49.960;8.454;2023-10-31T12:06:05;1.00;;;0.40;;
6015;SDS011;3036;49.960;8.454;2023-10-31T12:08:33;1.27;;;0.65;;
6015;SDS011;3036;49.960;8.454;2023-10-31T12:11:07;1.85;;;0.40;;
6015;SDS011;3036;49.960;8.454;2023-10-31T12:13:35;5.95;;;0.57;;
6015;SDS011;3036;49.960;8.454;2023-10-31T12:16:02;0.50;;;0.50;;
6015;SDS011;3036;49.960;8.454;2023-10-31T12:18:30;1.50;;;0.45;;
6015;SDS011;3036;49.960;8.454;2023-10-31T12:20:57;1.65;;;0.50;;
6015;SDS011;3036;49.960;8.454;2023-10-31T12:23:25;0.75;;;0.75;;
6015;SDS011;3036;49.960;8.454;2023-10-31T12:25:52;1.67;;;0.50;;
6015;SDS011;3036;49.960;8.454;2023-10-31T12:28:20;4.20;;;1.83;;
6015;SDS011;3036;49.960;8.454;2023-10-31T12:30:48;3.88;;;0.70;;
6015;SDS011;3036;49.960;8.454;2023-10-31T12:33:15;0.85;;;0.65;;
6015;SDS011;3036;49.960;8.454;2023-10-31T12:35:42;1.95;;;0.50;;
6015;SDS011;3036;49.960;8.454;2023-10-31T12:38:10;1.30;;;0.52;;
6015;SDS011;3036;49.960;8.454;2023-10-31T12:40:38;0.50;;;0.50;;
6015;SDS011;3036;49.960;8.454;2023-10-31T12:43:06;1.65;;;0.70;;
6015;SDS011;3036;49.960;8.454;2023-10-31T12:45:34;0.40;;;0.40;;
6015;SDS011;3036;49.960;8.454;2023-10-31T12:48:02;3.17;;;0.40;;
6015;SDS011;3036;49.960;8.454;2023-10-31T12:50:30;2.38;;;0.70;;
6015;SDS011;3036;49.960;8.454;2023-10-31T12:52:57;1.00;;;0.70;;
6015;SDS011;3036;49.960;8.454;2023-10-31T12:55:25;2.72;;;0.63;;
6015;SDS011;3036;49.960;8.454;2023-10-31T12:57:54;0.90;;;0.43;;
6015;SDS011;3036;49.960;8.454;2023-10-31T13:00:22;4.30;;;0.55;;
6015;SDS011;3036;49.960;8.454;2023-10-31T13:02:58;0.57;;;0.57;;
6015;SDS011;3036;49.960;8.454;2023-10-31T13:05:25;1.80;;;0.70;;
6015;SDS011;3036;49.960;8.454;2023-10-31T13:07:54;2.17;;;0.70;;
6015;SDS011;3036;49.960;8.454;2023-10-31T13:10:22;0.52;;;0.52;;
6015;SDS011;3036;49.960;8.454;2023-10-31T13:12:49;2.92;;;0.50;;
6015;SDS011;3036;49.960;8.454;2023-10-31T13:15:18;3.55;;;0.75;;
6015;SDS011;3036;49.960;8.454;2023-10-31T13:17:46;1.55;;;0.38;;
6015;SDS011;3036;49.960;8.454;2023-10-31T13:20:14;0.93;;;0.40;;
6015;SDS011;3036;49.960;8.454;2023-10-31T13:22:41;5.28;;;0.60;;
6015;SDS011;3036;49.960;8.454;2023-10-31T13:25:09;0.95;;;0.47;;
6015;SDS011;3036;49.960;8.454;2023-10-31T13:27:37;2.50;;;0.80;;
6015;SDS011;3036;49.960;8.454;2023-10-31T13:30:06;3.30;;;0.63;;
6015;SDS011;3036;49.960;8.454;2023-10-31T13:32:37;3.45;;;0.90;;
6015;SDS011;3036;49.960;8.454;2023-10-31T13:35:04;3.60;;;0.73;;
6015;SDS011;3036;49.960;8.454;2023-10-31T13:37:31;2.38;;;0.40;;
6015;SDS011;3036;49.960;8.454;2023-10-31T13:39:59;1.58;;;0.45;;
6015;SDS011;3036;49.960;8.454;2023-10-31T13:42:26;2.55;;;1.00;;
6015;SDS011;3036;49.960;8.454;2023-10-31T13:44:54;3.60;;;0.85;;
6015;SDS011;3036;49.960;8.454;2023-10-31T13:47:21;1.55;;;0.75;;
6015;SDS011;3036;49.960;8.454;2023-10-31T13:49:49;4.38;;;0.95;;
6015;SDS011;3036;49.960;8.454;2023-10-31T13:52:16;2.55;;;1.00;;
6015;SDS011;3036;49.960;8.454;2023-10-31T13:54:43;1.65;;;0.52;;
6015;SDS011;3036;49.960;8.454;2023-10-31T13:57:11;0.85;;;0.40;;
6015;SDS011;3036;49.960;8.454;2023-10-31T13:59:39;0.40;;;0.40;;
6015;SDS011;3036;49.960;8.454;2023-10-31T14:02:06;2.08;;;0.57;;
6015;SDS011;3036;49.960;8.454;2023-10-31T14:04:34;2.25;;;0.50;;
6015;SDS011;3036;49.960;8.454;2023-10-31T14:07:02;0.98;;;0.55;;
6015;SDS011;3036;49.960;8.454;2023-10-31T14:09:29;2.28;;;0.80;;
6015;SDS011;3036;49.960;8.454;2023-10-31T14:11:58;0.60;;;0.52;;
6015;SDS011;3036;49.960;8.454;2023-10-31T14:14:25;2.75;;;0.60;;
6015;SDS011;3036;49.960;8.454;2023-10-31T14:16:52;2.45;;;0.50;;
6015;SDS011;3036;49.960;8.454;2023-10-31T14:19:19;2.25;;;0.55;;
6015;SDS011;3036;49.960;8.454;2023-10-31T14:21:46;2.00;;;0.60;;
6015;SDS011;3036;49.960;8.454;2023-10-31T14:24:15;1.63;;;0.80;;
6015;SDS011;3036;49.960;8.454;2023-10-31T14:26:42;3.15;;;0.80;;
6015;SDS011;3036;49.960;8.454;2023-10-31T14:29:09;1.27;;;0.90;;
6015;SDS011;3036;49.960;8.454;2023-10-31T14:31:40;0.70;;;0.70;;
6015;SDS011;3036;49.960;8.454;2023-10-31T14:34:07;3.40;;;0.80;;
6015;SDS011;3036;49.960;8.454;2023-10-31T14:36:34;0.65;;;0.65;;
6015;SDS011;3036;49.960;8.454;2023-10-31T14:39:01;3.78;;;0.80;;
6015;SDS011;3036;49.960;8.454;2023-10-31T14:41:31;1.75;;;0.60;;
6015;SDS011;3036;49.960;8.454;2023-10-31T14:43:59;1.42;;;0.60;;
6015;SDS011;3036;49.960;8.454;2023-10-31T14:46:26;0.90;;;0.90;;
6015;SDS011;3036;49.960;8.454;2023-10-31T14:48:54;1.33;;;0.85;;
6015;SDS011;3036;49.960;8.454;2023-10-31T14:51:21;3.40;;;0.75;;
6015;SDS011;3036;49.960;8.454;2023-10-31T14:53:48;2.40;;;0.73;;
6015;SDS011;3036;49.960;8.454;2023-10-31T14:56:15;2.03;;;0.60;;
6015;SDS011;3036;49.960;8.454;2023-10-31T14:58:43;6.20;;;0.68;;
6015;SDS011;3036;49.960;8.454;2023-10-31T15:01:10;2.50;;;0.40;;
6015;SDS011;3036;49.960;8.454;2023-10-31T15:03:38;1.45;;;0.30;;
6015;SDS011;3036;49.960;8.454;2023-10-31T15:06:05;4.47;;;0.45;;
6015;SDS011;3036;49.960;8.454;2023-10-31T15:08:33;0.30;;;0.30;;
6015;SDS011;3036;49.960;8.454;2023-10-31T15:11:00;0.77;;;0.35;;
6015;SDS011;3036;49.960;8.454;2023-10-31T15:13:27;3.03;;;0.32;;
6015;SDS011;3036;49.960;8.454;2023-10-31T15:15:55;0.47;;;0.30;;
6015;SDS011;3036;49.960;8.454;2023-10-31T15:18:22;0.93;;;0.50;;
6015;SDS011;3036;49.960;8.454;2023-10-31T15:20:49;2.00;;;0.40;;